Time;durP1;ratioP1;P1;durP2;ratioP2;P2;SDS_P1;SDS_P2;PMS_P1;PMS_P2;Temp;Humidity;BMP_temperature;BMP_pressure;BME280_temperature;BME280_humidity;BME280_pressure;Samples;Min_cycle;Max_cycle;Signal;HPM_P1;HPM_P2
2021/12/21 00:02:13;;;;;;;10.45;6.42;;;;;;;0.76;70.32;99671.70;1674808;85;21203;-53
2021/12/21 00:05:26;;;;;;;7.97;4.97;;;;;;;0.69;70.19;99678.11;1672391;85;21311;-53
2021/12/21 00:08:31;;;;;;;8.58;4.58;;;;;;;0.64;70.15;99681.68;1665702;84;21828;-52
2021/12/21 00:11:41;;;;;;;7.47;4.28;;;;;;;0.55;70.02;99682.47;1651199;85;21245;-53
2021/12/21 00:15:03;;;;;;;6.55;4.40;;;;;;;0.52;70.19;99676.48;1674311;85;21296;-53
2021/12/21 00:21:37;;;;;;;6.00;4.20;;;;;;;0.34;70.45;99674.86;1654863;86;21265;-53
2021/12/21 00:24:46;;;;;;;8.05;4.03;;;;;;;0.37;70.77;99684.02;1677534;85;21353;-52
2021/12/21 00:27:48;;;;;;;4.97;3.55;;;;;;;0.38;70.99;99688.41;1674627;85;21457;-53
2021/12/21 00:30:57;;;;;;;7.92;4.10;;;;;;;0.38;71.00;99687.57;1647999;86;21236;-53
2021/12/21 00:34:06;;;;;;;7.45;4.40;;;;;;;0.39;71.39;99688.78;1673000;84;21244;-52
2021/12/21 00:37:13;;;;;;;8.35;5.05;;;;;;;0.45;71.62;99686.05;1646388;86;21257;-53
2021/12/21 00:40:19;;;;;;;7.05;4.67;;;;;;;0.47;71.59;99693.03;1676012;85;21971;-53
2021/12/21 00:43:25;;;;;;;7.60;4.30;;;;;;;0.49;71.74;99695.59;1654681;82;21287;-53
2021/12/21 00:46:31;;;;;;;8.13;5.00;;;;;;;0.50;71.77;99691.91;1684350;85;21378;-53
2021/12/21 00:49:45;;;;;;;7.78;4.40;;;;;;;0.50;71.96;99691.42;1686460;85;21252;-54
2021/12/21 00:52:51;;;;;;;9.13;5.22;;;;;;;0.51;71.98;99689.08;1687390;84;21721;-54
2021/12/21 00:55:56;;;;;;;9.08;5.03;;;;;;;0.51;72.25;99694.98;1680727;85;21197;-53
2021/12/21 00:59:03;;;;;;;7.78;5.42;;;;;;;0.54;72.30;99694.20;1680693;85;21780;-53
2021/12/21 01:02:09;;;;;;;8.13;5.60;;;;;;;0.50;72.39;99699.98;1680747;85;21244;-53
2021/12/21 01:05:29;;;;;;;6.62;4.90;;;;;;;0.46;72.67;99704.77;1687930;85;21201;-52
2021/12/21 01:08:43;;;;;;;8.90;5.28;;;;;;;0.48;72.78;99701.95;1686230;85;21232;-53
2021/12/21 01:11:49;;;;;;;10.60;5.83;;;;;;;0.50;73.04;99702.20;1680923;85;21304;-54
2021/12/21 01:18:17;;;;;;;6.42;4.62;;;;;;;0.51;72.83;99706.58;1687772;85;21302;-55
2021/12/21 01:21:19;;;;;;;9.00;5.15;;;;;;;0.41;73.01;99704.80;1686371;85;21224;-53
2021/12/21 01:24:50;;;;;;;5.83;4.10;;;;;;;0.35;73.12;99712.05;1680577;85;21256;-53
2021/12/21 01:28:36;;;;;;;5.97;3.72;;;;;;;0.27;73.06;99707.80;1680768;85;21774;-53
2021/12/21 01:37:14;;;;;;;5.62;3.80;;;;;;;-0.15;73.15;99718.91;1680722;85;21284;-53
2021/12/21 01:41:02;;;;;;;6.47;3.75;;;;;;;-0.14;72.90;99720.60;1680821;85;21236;-54
2021/12/21 01:43:47;;;;;;;5.83;3.90;;;;;;;-0.11;72.51;99721.70;1673805;83;21242;-53
2021/12/21 01:50:09;;;;;;;5.00;3.58;;;;;;;-0.17;71.78;99725.75;1654855;86;21241;-53
2021/12/21 01:53:15;;;;;;;5.90;3.52;;;;;;;-0.17;71.50;99731.61;1654517;87;21220;-53
2021/12/21 01:56:20;;;;;;;4.70;3.67;;;;;;;-0.25;70.65;99734.06;1666874;86;21366;-53
2021/12/21 01:59:26;;;;;;;5.70;3.83;;;;;;;-0.25;70.71;99740.78;1655183;86;21769;-54
2021/12/21 02:02:35;;;;;;;6.42;3.45;;;;;;;-0.24;70.50;99747.38;1666463;86;21949;-54
2021/12/21 02:05:42;;;;;;;6.17;4.10;;;;;;;-0.22;70.44;99759.36;1655891;86;21237;-53
2021/12/21 02:08:49;;;;;;;5.45;3.77;;;;;;;-0.28;70.15;99757.17;1666594;85;21387;-53
2021/12/21 02:11:55;;;;;;;5.55;4.03;;;;;;;-0.37;69.99;99765.50;1654176;87;21268;-54
2021/12/21 02:15:02;;;;;;;7.90;4.25;;;;;;;-0.51;69.88;99766.23;1666565;86;21242;-54
2021/12/21 02:21:33;;;;;;;6.95;4.33;;;;;;;-0.66;70.59;99768.28;1666545;86;21400;-55
2021/12/21 02:24:41;;;;;;;4.92;4.00;;;;;;;-0.74;70.62;99771.19;1654633;86;21271;-53
2021/12/21 02:27:57;;;;;;;7.08;4.53;;;;;;;-0.85;70.92;99768.49;1680281;85;21433;-53
2021/12/21 02:30:56;;;;;;;6.17;4.55;;;;;;;-0.88;71.39;99773.63;1666562;86;21340;-53
2021/12/21 02:34:02;;;;;;;5.80;4.33;;;;;;;-0.95;71.52;99775.06;1654798;86;21268;-53
2021/12/21 02:37:08;;;;;;;8.53;4.60;;;;;;;-1.07;72.02;99780.05;1666999;85;21406;-53
2021/12/21 02:40:15;;;;;;;5.70;4.47;;;;;;;-1.08;72.40;99770.77;1655079;86;21241;-55
2021/12/21 02:43:22;;;;;;;6.28;4.53;;;;;;;-1.03;72.81;99775.30;1667178;85;21277;-55
2021/12/21 02:46:30;;;;;;;6.28;4.40;;;;;;;-0.97;73.06;99782.41;1655625;83;21233;-53
2021/12/21 02:49:35;;;;;;;6.35;4.45;;;;;;;-0.89;73.06;99792.55;1666616;86;21241;-54
2021/12/21 02:52:42;;;;;;;6.47;4.50;;;;;;;-0.90;73.00;99794.84;1654719;86;21317;-54
2021/12/21 02:55:48;;;;;;;7.37;4.42;;;;;;;-0.92;72.94;99806.22;1666580;84;21387;-54
2021/12/21 02:58:53;;;;;;;6.42;4.50;;;;;;;-0.98;72.84;99808.04;1655643;86;21240;-53
2021/12/21 03:02:03;;;;;;;7.15;4.83;;;;;;;-1.03;72.91;99811.56;1654727;86;21904;-54
2021/12/21 03:05:09;;;;;;;7.25;5.03;;;;;;;-1.05;73.06;99812.16;1666675;86;21229;-54
2021/12/21 03:08:37;;;;;;;7.30;5.05;;;;;;;-1.02;73.19;99819.97;1654793;86;21445;-53
2021/12/21 03:11:48;;;;;;;6.53;4.30;;;;;;;-0.96;73.26;99832.92;1654755;86;21860;-53
2021/12/21 03:14:45;;;;;;;6.62;4.20;;;;;;;-0.93;73.31;99830.88;1667914;84;21249;-54
2021/12/21 03:17:51;;;;;;;7.42;4.53;;;;;;;-0.85;73.13;99828.93;1654612;86;21229;-54
2021/12/21 03:20:59;;;;;;;7.45;4.97;;;;;;;-0.90;72.98;99830.63;1666865;84;21364;-54
2021/12/21 03:24:05;;;;;;;6.15;4.37;;;;;;;-0.92;73.10;99840.63;1654663;86;21359;-54
2021/12/21 03:27:12;;;;;;;7.45;4.85;;;;;;;-0.93;72.97;99838.93;1654629;87;21722;-54
2021/12/21 03:30:21;;;;;;;7.22;5.00;;;;;;;-0.93;73.06;99844.78;1667357;85;21948;-54
2021/12/21 03:33:28;;;;;;;7.10;4.80;;;;;;;-0.93;73.19;99851.02;1654418;86;21295;-54
2021/12/21 03:36:34;;;;;;;7.45;5.28;;;;;;;-0.84;73.24;99861.56;1654712;86;21224;-55
2021/12/21 03:39:40;;;;;;;7.83;5.42;;;;;;;-0.80;73.13;99865.23;1666723;84;21395;-54
2021/12/21 03:42:46;;;;;;;7.78;5.05;;;;;;;-0.82;72.97;99857.77;1654661;86;21694;-52
2021/12/21 03:46:00;;;;;;;7.55;5.08;;;;;;;-0.72;73.46;99859.27;1668606;83;21415;-54
2021/12/21 03:49:13;;;;;;;6.97;4.85;;;;;;;-0.60;73.31;99859.64;1652473;86;21234;-53
2021/12/21 03:52:16;;;;;;;6.42;4.45;;;;;;;-0.51;73.07;99854.92;1677104;85;21276;-54
2021/12/21 03:55:23;;;;;;;6.47;4.85;;;;;;;-0.41;72.87;99858.59;1671262;85;21217;-54
2021/12/21 03:58:28;;;;;;;6.45;4.70;;;;;;;-0.41;72.44;99871.55;1652194;86;21829;-53
2021/12/21 04:01:36;;;;;;;5.62;4.28;;;;;;;-0.43;72.07;99870.80;1671263;85;21929;-54
2021/12/21 04:04:48;;;;;;;5.92;4.30;;;;;;;-0.53;71.37;99878.37;1671496;85;21237;-54
2021/12/21 04:07:54;;;;;;;6.90;4.00;;;;;;;-0.62;71.40;99878.58;1652036;86;21331;-53
2021/12/21 04:11:01;;;;;;;5.45;4.40;;;;;;;-0.62;71.26;99881.27;1671414;85;21352;-53
2021/12/21 04:14:09;;;;;;;5.92;4.50;;;;;;;-0.67;70.88;99882.13;1653134;86;21479;-54
2021/12/21 04:17:22;;;;;;;4.78;3.85;;;;;;;-0.69;70.96;99888.58;1671120;85;21936;-54
2021/12/21 04:20:31;;;;;;;8.53;5.35;;;;;;;-0.69;70.91;99888.58;1652626;86;21770;-54
2021/12/21 04:23:39;;;;;;;7.75;5.83;;;;;;;-0.69;70.86;99885.41;1652088;87;21912;-53
2021/12/21 04:26:47;;;;;;;7.37;5.45;;;;;;;-0.74;70.94;99895.66;1671764;85;21347;-54
2021/12/21 04:29:55;;;;;;;7.65;5.47;;;;;;;-0.79;71.03;99900.52;1652228;86;21257;-54
2021/12/21 04:33:01;;;;;;;10.48;5.65;;;;;;;-0.84;70.93;99909.41;1670993;85;21368;-53
2021/12/21 04:36:08;;;;;;;7.37;5.80;;;;;;;-0.90;70.97;99909.87;1653607;86;21264;-54
2021/12/21 04:39:32;;;;;;;7.55;6.00;;;;;;;-0.88;71.00;99917.81;1671183;86;21391;-54
2021/12/21 04:42:25;;;;;;;8.33;5.25;;;;;;;-0.88;71.00;99909.28;1652218;86;21422;-54
2021/12/21 04:45:31;;;;;;;7.25;5.35;;;;;;;-0.81;71.06;99911.86;1651949;87;21281;-54
2021/12/21 04:48:38;;;;;;;6.75;5.30;;;;;;;-0.72;71.19;99911.18;1655836;83;21273;-54
2021/12/21 04:51:48;;;;;;;9.00;4.75;;;;;;;-0.62;71.09;99908.14;1666563;86;21730;-55
2021/12/21 04:54:54;;;;;;;6.85;5.25;;;;;;;-0.52;70.91;99920.39;1654930;86;21632;-53
2021/12/21 04:58:02;;;;;;;7.22;5.47;;;;;;;-0.46;70.66;99919.94;1666741;84;21865;-54
2021/12/21 05:01:11;;;;;;;7.50;5.55;;;;;;;-0.51;70.10;99919.44;1655085;86;21868;-54
2021/12/21 05:04:17;;;;;;;8.60;5.95;;;;;;;-0.53;69.97;99921.38;1654873;86;21414;-54
2021/12/21 05:07:27;;;;;;;7.65;5.72;;;;;;;-0.55;69.72;99922.84;1666307;86;21881;-54
2021/12/21 05:10:32;;;;;;;7.03;4.80;;;;;;;-0.57;69.59;99927.97;1655129;86;21220;-55
2021/12/21 05:13:41;;;;;;;8.15;5.47;;;;;;;-0.57;69.61;99937.38;1654748;86;21414;-55
2021/12/21 05:16:48;;;;;;;7.87;5.00;;;;;;;-0.59;69.40;99936.63;1666897;84;21234;-54
2021/12/21 05:19:55;;;;;;;8.50;4.65;;;;;;;-0.61;69.31;99947.98;1654863;86;21828;-55
2021/12/21 05:23:01;;;;;;;6.83;4.60;;;;;;;-0.61;69.23;99950.66;1666656;85;21230;-55
2021/12/21 05:26:08;;;;;;;6.95;5.45;;;;;;;-0.59;69.15;99944.70;1654846;86;21264;-55
2021/12/21 05:29:14;;;;;;;7.05;4.97;;;;;;;-0.56;69.06;99945.33;1654740;86;21325;-55
2021/12/21 05:32:19;;;;;;;7.05;4.92;;;;;;;-0.59;68.88;99948.25;1654816;86;21422;-55
2021/12/21 05:35:27;;;;;;;7.37;4.75;;;;;;;-0.60;68.86;99952.37;1654737;86;21268;-54
2021/12/21 05:38:34;;;;;;;7.60;5.40;;;;;;;-0.62;68.84;99955.17;1657905;85;21218;-55
2021/12/21 05:41:51;;;;;;;8.35;5.05;;;;;;;-0.61;69.01;99965.45;1654302;86;21304;-55
2021/12/21 05:44:49;;;;;;;8.70;5.55;;;;;;;-0.60;69.13;99954.58;1639046;86;21288;-54
2021/12/21 05:47:58;;;;;;;7.00;4.90;;;;;;;-0.49;69.24;99959.16;1625504;82;21301;-54
2021/12/21 05:51:03;;;;;;;7.33;5.15;;;;;;;-0.44;69.01;99965.02;1637186;87;21284;-55
2021/12/21 05:54:10;;;;;;;6.33;4.33;;;;;;;-0.42;68.98;99971.14;1649104;86;21510;-55
2021/12/21 05:57:15;;;;;;;7.10;4.87;;;;;;;-0.41;68.88;99976.40;1674701;84;21205;-54
2021/12/21 06:00:27;;;;;;;7.35;4.72;;;;;;;-0.42;68.82;99973.34;1657887;85;21280;-55
2021/12/21 06:03:34;;;;;;;7.30;5.33;;;;;;;-0.40;68.77;99974.58;1668846;85;21233;-55
2021/12/21 06:06:39;;;;;;;7.20;5.10;;;;;;;-0.40;68.86;99982.12;1654612;85;21289;-54
2021/12/21 06:09:47;;;;;;;9.28;4.47;;;;;;;-0.37;68.76;99979.72;1657640;85;21616;-54
2021/12/21 06:23:02;;;;;;;11.25;6.40;;;;;;;-0.23;68.79;99999.68;1653054;86;21227;-55
2021/12/21 06:25:57;;;;;;;7.62;5.08;;;;;;;-0.17;68.80;99998.72;1652868;86;21201;-55
2021/12/21 06:29:03;;;;;;;9.80;6.40;;;;;;;-0.14;68.74;100004.34;1650753;86;21776;-56
2021/12/21 06:32:12;;;;;;;10.60;6.60;;;;;;;-0.16;68.60;100015.22;1669579;84;21220;-55
2021/12/21 06:35:19;;;;;;;9.13;6.95;;;;;;;-0.30;68.36;100018.59;1661461;85;21234;-53
2021/12/21 06:38:29;;;;;;;14.58;8.50;;;;;;;-0.56;68.25;100028.64;1673371;84;21318;-54
2021/12/21 06:41:34;;;;;;;6.90;4.65;;;;;;;-0.77;68.46;100035.60;1648991;86;21588;-54
2021/12/21 06:44:43;;;;;;;9.33;4.85;;;;;;;-0.92;68.36;100041.25;1615118;88;21256;-55
2021/12/21 06:51:21;;;;;;;5.80;3.63;;;;;;;-1.49;67.77;100046.78;1662400;84;21815;-54
2021/12/21 06:54:23;;;;;;;6.25;4.00;;;;;;;-1.71;67.93;100064.85;1664233;85;21323;-55
2021/12/21 06:57:32;;;;;;;5.12;3.20;;;;;;;-1.96;67.94;100045.59;1666972;84;21293;-55
2021/12/21 07:00:36;;;;;;;8.25;4.35;;;;;;;-2.13;68.47;100064.66;1691484;85;21765;-55
2021/12/21 07:03:44;;;;;;;6.37;3.67;;;;;;;-2.13;68.99;100063.80;1689503;84;21248;-54
2021/12/21 07:06:52;;;;;;;7.17;4.35;;;;;;;-2.05;69.18;100069.50;1689291;84;21777;-56
2021/12/21 07:10:05;;;;;;;7.80;3.72;;;;;;;-2.07;69.31;100077.64;1693189;83;21700;-54
2021/12/21 07:20:02;;;;;;;5.55;3.35;;;;;;;-2.09;69.10;100089.41;1692278;83;21201;-56
2021/12/21 07:23:10;;;;;;;6.08;3.95;;;;;;;-2.17;68.79;100096.64;1692115;84;21232;-56
2021/12/21 07:26:16;;;;;;;5.17;3.92;;;;;;;-2.26;68.60;100114.69;1686667;85;21393;-54
2021/12/21 07:29:21;;;;;;;5.33;3.52;;;;;;;-2.26;68.73;100111.14;1684342;85;21750;-54
2021/12/21 07:32:31;;;;;;;5.85;3.83;;;;;;;-2.22;69.31;100106.81;1638985;84;21738;-55
2021/12/21 07:35:37;;;;;;;5.65;3.77;;;;;;;-2.22;69.90;100106.81;1673278;84;21304;-55
2021/12/21 07:38:43;;;;;;;5.22;3.90;;;;;;;-2.26;69.62;100117.38;1662082;85;21244;-54
2021/12/21 07:41:49;;;;;;;8.53;3.92;;;;;;;-2.29;69.72;100128.30;1663339;86;21227;-55
2021/12/21 07:45:00;;;;;;;5.20;3.47;;;;;;;-2.33;68.82;100130.79;1683385;84;21340;-55
2021/12/21 07:48:08;;;;;;;3.75;2.83;;;;;;;-2.38;67.96;100138.27;1677422;85;21288;-55
2021/12/21 07:51:15;;;;;;;4.00;3.37;;;;;;;-2.46;67.37;100133.92;1678270;83;21214;-56
2021/12/21 07:54:21;;;;;;;4.78;3.30;;;;;;;-2.55;67.49;100138.52;1651686;86;21227;-56
2021/12/21 07:57:28;;;;;;;5.10;3.50;;;;;;;-2.60;67.75;100135.27;1650242;86;21213;-55
2021/12/21 08:00:34;;;;;;;6.45;3.67;;;;;;;-2.57;68.05;100139.13;1647385;86;21248;-55
2021/12/21 08:03:39;;;;;;;6.95;4.17;;;;;;;-2.49;68.34;100146.15;1645770;86;21228;-55
2021/12/21 08:06:49;;;;;;;5.20;3.60;;;;;;;-2.35;68.50;100136.76;1651072;86;21762;-57
2021/12/21 08:09:58;;;;;;;4.00;3.17;;;;;;;-2.24;68.16;100139.58;1653075;86;22063;-56
2021/12/21 08:13:04;;;;;;;6.45;3.87;;;;;;;-2.26;67.42;100148.20;1668908;84;21348;-58
2021/12/21 08:16:10;;;;;;;5.95;3.72;;;;;;;-2.41;66.92;100150.53;1653513;86;21740;-56
2021/12/21 08:19:17;;;;;;;7.60;4.25;;;;;;;-2.52;67.44;100154.89;1653456;86;21292;-56
2021/12/21 08:22:28;;;;;;;7.12;4.62;;;;;;;-2.45;67.68;100151.70;1666669;85;21181;-55
2021/12/21 08:25:33;;;;;;;6.12;3.65;;;;;;;-2.25;67.65;100148.56;1662426;85;21240;-58
2021/12/21 08:28:44;;;;;;;7.30;4.47;;;;;;;-2.08;67.35;100150.98;1662534;85;21224;-56
2021/12/21 08:31:50;;;;;;;9.43;4.70;;;;;;;-2.03;67.30;100155.56;1668231;85;21278;-55
2021/12/21 08:34:59;;;;;;;7.17;3.80;;;;;;;-2.00;66.68;100171.94;1670943;85;21240;-55
2021/12/21 08:38:09;;;;;;;8.13;3.10;;;;;;;-2.13;65.46;100161.64;1672169;85;22631;-56
2021/12/21 08:41:16;;;;;;;4.85;3.37;;;;;;;-2.21;64.31;100167.99;1647254;85;21192;-56
2021/12/21 08:44:24;;;;;;;5.60;3.42;;;;;;;-2.30;63.78;100167.27;1672531;85;21762;-55
2021/12/21 08:47:30;;;;;;;7.35;3.30;;;;;;;-2.28;63.68;100164.85;1672278;85;21268;-55
2021/12/21 08:50:37;;;;;;;7.47;4.00;;;;;;;-2.23;62.83;100155.16;1667367;85;21730;-60
2021/12/21 08:53:43;;;;;;;3.98;3.17;;;;;;;-2.19;62.67;100168.26;1669002;84;21276;-59
2021/12/21 08:56:50;;;;;;;3.50;2.47;;;;;;;-2.15;62.34;100166.24;1668604;86;21228;-60
2021/12/21 08:59:57;;;;;;;4.65;2.90;;;;;;;-2.21;62.29;100170.20;1664139;84;21284;-59
2021/12/21 09:03:05;;;;;;;4.53;3.08;;;;;;;-2.25;62.52;100161.97;1631997;86;21289;-60
2021/12/21 09:06:16;;;;;;;5.00;3.33;;;;;;;-2.18;63.17;100163.77;1651998;87;21743;-60
2021/12/21 09:09:21;;;;;;;3.83;2.80;;;;;;;-2.04;63.03;100161.89;1652075;87;21835;-59
2021/12/21 09:12:32;;;;;;;4.50;2.83;;;;;;;-2.07;62.91;100156.73;1651999;87;21322;-59
2021/12/21 09:15:38;;;;;;;7.53;3.30;;;;;;;-2.02;63.11;100159.98;1666298;85;21610;-60
2021/12/21 09:18:45;;;;;;;7.42;3.83;;;;;;;-1.93;62.63;100164.72;1668757;85;21229;-59
2021/12/21 09:21:50;;;;;;;5.15;3.30;;;;;;;-1.93;62.65;100163.38;1674643;85;21337;-59
2021/12/21 09:24:57;;;;;;;5.85;3.60;;;;;;;-1.79;62.66;100167.80;1674771;85;21240;-60
2021/12/21 09:28:03;;;;;;;5.45;3.05;;;;;;;-1.64;62.27;100153.36;1641064;87;21224;-59
2021/12/21 09:31:11;;;;;;;6.12;3.80;;;;;;;-1.59;62.04;100162.80;1650995;86;21272;-60
2021/12/21 09:34:21;;;;;;;4.45;2.60;;;;;;;-1.47;61.86;100157.58;1658957;85;21277;-61
2021/12/21 09:37:28;;;;;;;4.67;3.08;;;;;;;-1.41;61.39;100159.83;1675995;84;21224;-58
2021/12/21 09:40:40;;;;;;;5.87;3.25;;;;;;;-1.32;60.98;100160.52;1632485;87;21240;-60
2021/12/21 09:43:49;;;;;;;5.33;3.27;;;;;;;-1.28;60.40;100164.73;1664260;85;21245;-59
2021/12/21 09:47:00;;;;;;;4.10;2.95;;;;;;;-1.26;60.15;100161.44;1677860;85;21205;-59
2021/12/21 09:50:07;;;;;;;6.20;3.80;;;;;;;-1.19;60.22;100162.73;1677913;84;21247;-60
2021/12/21 09:53:14;;;;;;;5.67;3.42;;;;;;;-1.22;59.56;100153.55;1672667;84;21252;-60
2021/12/21 09:56:20;;;;;;;4.62;2.90;;;;;;;-1.34;59.27;100155.27;1667661;85;21213;-59
2021/12/21 09:59:26;;;;;;;8.68;4.22;;;;;;;-1.38;59.16;100171.69;1653322;84;21232;-60
2021/12/21 10:02:34;;;;;;;8.25;4.92;;;;;;;-1.41;59.14;100166.03;1662172;85;21767;-60
2021/12/21 10:05:45;;;;;;;7.53;3.65;;;;;;;-1.43;59.39;100167.99;1670519;84;22032;-59
2021/12/21 10:08:52;;;;;;;9.18;4.83;;;;;;;-1.30;59.35;100174.70;1672481;84;21571;-60
2021/12/21 10:11:58;;;;;;;6.67;3.08;;;;;;;-1.21;58.61;100175.40;1664904;85;21232;-59
2021/12/21 10:15:16;;;;;;;5.25;2.83;;;;;;;-1.17;58.18;100172.39;1677664;84;21226;-59
2021/12/21 10:18:41;;;;;;;4.87;3.00;;;;;;;-1.12;58.20;100180.98;1607745;88;21799;-59
2021/12/21 10:21:57;;;;;;;7.15;3.08;;;;;;;-1.01;57.75;100182.44;1659088;86;21765;-59
2021/12/21 10:25:02;;;;;;;5.37;3.37;;;;;;;-1.07;56.96;100176.16;1664451;84;21279;-60
2021/12/21 10:28:09;;;;;;;4.75;3.30;;;;;;;-1.12;57.54;100180.98;1652445;86;21779;-61
2021/12/21 10:31:36;;;;;;;5.37;3.72;;;;;;;-1.08;57.63;100182.51;1668697;85;21212;-59
2021/12/21 10:34:43;;;;;;;4.12;2.92;;;;;;;-1.11;57.63;100195.28;1653029;86;21691;-59
2021/12/21 10:37:50;;;;;;;7.80;4.97;;;;;;;-1.33;57.75;100197.74;1664793;85;21769;-58
2021/12/21 10:40:59;;;;;;;6.28;3.70;;;;;;;-1.59;58.12;100211.59;1653033;86;21220;-59
2021/12/21 10:44:18;;;;;;;6.35;4.08;;;;;;;-1.91;58.19;100199.48;1648416;85;21243;-59
2021/12/21 10:47:24;;;;;;;8.93;5.05;;;;;;;-2.14;58.41;100211.71;1647535;86;21232;-59
2021/12/21 10:50:34;;;;;;;12.58;5.33;;;;;;;-2.32;58.63;100210.25;1655765;86;21276;-59
2021/12/21 10:53:40;;;;;;;5.33;3.40;;;;;;;-2.31;58.97;100215.98;1667250;83;21201;-58
2021/12/21 10:56:47;;;;;;;11.40;5.80;;;;;;;-2.34;59.14;100215.31;1639276;86;21683;-59
2021/12/21 10:59:56;;;;;;;6.95;4.53;;;;;;;-2.37;59.14;100219.06;1639475;86;21741;-59
2021/12/21 11:03:02;;;;;;;9.38;5.15;;;;;;;-2.45;58.92;100220.03;1639557;86;21342;-58
2021/12/21 11:06:28;;;;;;;8.33;4.97;;;;;;;-2.59;58.85;100213.36;1635899;86;21218;-58
2021/12/21 11:09:36;;;;;;;9.98;6.20;;;;;;;-2.71;58.93;100207.42;1630745;86;21265;-59
2021/12/21 11:12:51;;;;;;;15.08;7.97;;;;;;;-2.75;59.15;100208.59;1644396;86;21224;-59
2021/12/21 11:16:03;;;;;;;12.88;7.03;;;;;;;-2.78;58.95;100210.13;1635486;85;21216;-58
2021/12/21 11:19:08;;;;;;;10.25;5.85;;;;;;;-2.85;59.05;100216.81;1670868;85;21226;-60
2021/12/21 11:22:15;;;;;;;7.08;4.47;;;;;;;-2.92;59.02;100215.95;1634940;86;21232;-59
2021/12/21 11:25:21;;;;;;;8.50;5.10;;;;;;;-2.86;59.62;100224.47;1645893;85;21248;-60
2021/12/21 11:28:36;;;;;;;6.62;4.78;;;;;;;-2.87;59.09;100224.58;1657532;84;21232;-60
2021/12/21 11:31:49;;;;;;;6.30;4.50;;;;;;;-2.98;59.13;100223.87;1639130;86;21994;-59
2021/12/21 11:37:20;;;;;;;5.20;3.60;;;;;;;-2.97;59.25;100228.30;1608664;88;21256;-60
2021/12/21 11:38:17;;;;;;;5.67;4.17;;;;;;;-2.82;59.28;100236.70;1622030;86;21304;-60
2021/12/21 11:41:26;;;;;;;4.90;3.10;;;;;;;-2.67;59.17;100239.77;1646812;86;22072;-60
2021/12/21 11:44:52;;;;;;;5.28;3.33;;;;;;;-2.70;58.47;100248.00;1658134;85;21256;-60
2021/12/21 11:48:27;;;;;;;5.53;3.17;;;;;;;-2.90;57.81;100250.20;1627763;87;21295;-59
2021/12/21 11:51:34;;;;;;;5.10;3.10;;;;;;;-3.10;57.45;100264.80;1624546;86;21801;-59
2021/12/21 11:54:42;;;;;;;4.75;2.90;;;;;;;-3.29;57.11;100272.22;1626223;86;21760;-58
2021/12/21 11:57:52;;;;;;;8.58;3.42;;;;;;;-3.43;56.98;100270.38;1620111;86;21232;-58
2021/12/21 12:01:02;;;;;;;5.75;3.55;;;;;;;-3.56;56.79;100284.55;1653625;85;21236;-60
2021/12/21 12:04:15;;;;;;;7.10;3.50;;;;;;;-3.77;56.84;100281.31;1672258;84;21228;-60
2021/12/21 12:07:24;;;;;;;6.37;3.67;;;;;;;-3.94;57.05;100282.77;1650114;86;21241;-60
2021/12/21 12:10:29;;;;;;;5.28;3.42;;;;;;;-3.95;57.40;100281.52;1665395;84;21218;-59
2021/12/21 12:13:44;;;;;;;5.12;3.45;;;;;;;-3.86;57.65;100290.34;1628244;85;21255;-59
2021/12/21 12:17:05;;;;;;;6.58;3.37;;;;;;;-3.82;57.34;100281.22;1652461;87;21281;-58
2021/12/21 12:20:14;;;;;;;6.47;3.98;;;;;;;-3.87;56.97;100288.13;1656567;86;21222;-59
2021/12/21 12:23:22;;;;;;;7.45;4.50;;;;;;;-3.89;57.02;100295.88;1626425;86;21287;-59
2021/12/21 12:26:44;;;;;;;10.63;4.33;;;;;;;-3.99;56.39;100302.67;1638215;87;21254;-58
2021/12/21 12:29:58;;;;;;;6.15;3.42;;;;;;;-4.16;56.49;100306.78;1659607;86;21228;-58
2021/12/21 12:33:08;;;;;;;;;;;;;;;-4.22;56.27;100312.01;1668403;84;21217;-58
2021/12/21 12:36:15;;;;;;;6.97;3.90;;;;;;;-4.22;55.83;100320.48;1665422;86;20579;-59
2021/12/21 12:39:34;;;;;;;8.93;3.90;;;;;;;-4.23;55.16;100322.78;1665051;86;21794;-58
2021/12/21 12:42:49;;;;;;;7.75;4.08;;;;;;;-4.31;54.39;100342.37;1630669;85;21224;-59
2021/12/21 12:46:12;;;;;;;10.45;4.83;;;;;;;-4.32;54.44;100325.48;1638754;85;21809;-60
2021/12/21 12:49:18;;;;;;;10.53;5.40;;;;;;;-4.25;54.70;100327.34;1658470;85;21213;-60
2021/12/21 12:52:30;;;;;;;5.35;3.10;;;;;;;-4.09;55.08;100330.39;1630166;85;21260;-60
2021/12/21 12:55:58;;;;;;;6.95;3.67;;;;;;;-4.06;54.30;100333.39;1657368;86;21308;-59
2021/12/21 12:59:10;;;;;;;9.75;3.80;;;;;;;-4.12;53.67;100336.41;1674319;84;21268;-58
2021/12/21 13:02:19;;;;;;;6.15;3.50;;;;;;;-4.18;52.98;100328.24;1683447;85;21216;-58
2021/12/21 13:05:32;;;;;;;7.95;4.20;;;;;;;-4.34;51.88;100348.73;1681838;85;21249;-56
2021/12/21 13:08:38;;;;;;;9.70;4.55;;;;;;;-4.54;51.97;100340.95;1683194;84;21295;-55
2021/12/21 13:11:46;;;;;;;6.12;3.85;;;;;;;-4.69;52.25;100353.77;1683559;85;21228;-55
2021/12/21 13:15:01;;;;;;;5.17;3.20;;;;;;;-4.84;52.75;100359.94;1683800;84;21299;-54
2021/12/21 13:18:17;;;;;;;4.95;3.12;;;;;;;-4.96;53.48;100369.43;1680955;84;21828;-55
2021/12/21 13:21:40;;;;;;;7.05;4.20;;;;;;;-4.96;54.19;100359.22;1713756;83;21221;-55
2021/12/21 13:24:46;;;;;;;15.88;5.33;;;;;;;-4.97;54.90;100374.84;1687281;83;21228;-55
2021/12/21 13:27:56;;;;;;;15.63;5.47;;;;;;;-5.22;55.70;100375.26;1678640;84;21185;-57
2021/12/21 13:31:02;;;;;;;20.72;6.53;;;;;;;-5.57;56.70;100374.81;1691292;84;21212;-56
2021/12/21 13:34:09;;;;;;;14.43;6.08;;;;;;;-5.86;57.47;100379.84;1691637;84;21229;-56
2021/12/21 13:37:22;;;;;;;14.63;5.42;;;;;;;-6.09;57.92;100394.28;1691305;84;21272;-55
2021/12/21 13:40:26;;;;;;;16.25;6.35;;;;;;;-6.25;58.39;100389.27;1681036;84;22174;-59
2021/12/21 13:43:32;;;;;;;12.03;5.83;;;;;;;-6.35;58.81;100397.28;1655836;84;21244;-56
2021/12/21 13:46:44;;;;;;;8.78;5.30;;;;;;;-6.46;58.98;100408.42;1679515;85;21215;-54
2021/12/21 13:50:26;;;;;;;16.60;11.05;;;;;;;-6.59;59.34;100403.70;1682137;85;22016;-57
2021/12/21 13:53:34;;;;;;;13.28;8.40;;;;;;;-6.69;59.78;100404.58;1638481;86;21255;-54
2021/12/21 13:56:40;;;;;;;7.72;5.08;;;;;;;-6.71;60.11;100409.13;1684725;85;21806;-54
2021/12/21 13:59:54;;;;;;;12.30;6.28;;;;;;;-6.68;60.36;100418.76;1640818;86;21221;-56
2021/12/21 14:03:27;;;;;;;9.15;4.47;;;;;;;-6.67;60.63;100416.03;1651585;85;21640;-60
2021/12/21 14:06:28;;;;;;;11.65;6.08;;;;;;;-6.57;60.53;100443.10;1629187;88;21280;-60
2021/12/21 14:09:34;;;;;;;11.33;6.33;;;;;;;-6.69;59.90;100440.50;1637764;86;21232;-59
2021/12/21 14:12:40;;;;;;;12.28;6.30;;;;;;;-6.85;59.46;100444.76;1656983;86;21775;-60
2021/12/21 14:15:49;;;;;;;11.10;6.08;;;;;;;-7.05;59.14;100455.84;1648677;86;21794;-59
2021/12/21 14:19:02;;;;;;;8.75;5.45;;;;;;;-7.19;59.37;100460.87;1642133;86;21658;-60
2021/12/21 14:22:07;;;;;;;11.50;5.37;;;;;;;-7.19;59.46;100457.77;1642459;87;21687;-60
2021/12/21 14:25:28;;;;;;;14.30;5.00;;;;;;;-7.21;59.21;100474.23;1647059;85;21222;-60
2021/12/21 14:28:37;;;;;;;9.23;4.03;;;;;;;-7.26;59.34;100468.24;1664079;85;21259;-60
2021/12/21 14:31:50;;;;;;;6.58;3.90;;;;;;;-7.15;59.52;100474.47;1663331;86;21295;-60
2021/12/21 14:34:57;;;;;;;8.65;4.20;;;;;;;-7.06;59.44;100472.75;1663719;85;21232;-60
2021/12/21 14:38:13;;;;;;;6.80;3.70;;;;;;;-6.95;59.30;100482.47;1663190;84;21227;-60
2021/12/21 14:41:18;;;;;;;5.67;3.62;;;;;;;-6.91;59.28;100484.93;1662761;86;21267;-61
2021/12/21 14:44:30;;;;;;;8.13;4.37;;;;;;;-6.85;59.43;100478.50;1663719;85;21255;-59
2021/12/21 14:47:40;;;;;;;5.97;3.75;;;;;;;-6.78;59.38;100494.59;1664022;84;21867;-60
2021/12/21 14:50:49;;;;;;;7.30;4.15;;;;;;;-6.80;59.13;100499.13;1642217;86;21283;-59
2021/12/21 14:54:08;;;;;;;11.15;6.62;;;;;;;-6.86;58.86;100488.72;1664983;85;21777;-62
2021/12/21 14:57:16;;;;;;;5.83;3.58;;;;;;;-6.93;58.43;100502.74;1665086;86;21327;-60
2021/12/21 15:00:31;;;;;;;6.20;3.60;;;;;;;-7.05;58.20;100507.25;1651903;84;21309;-59
2021/12/21 15:03:46;;;;;;;7.30;3.40;;;;;;;-7.19;58.15;100511.41;1650096;86;21295;-60
2021/12/21 15:06:53;;;;;;;6.60;4.22;;;;;;;-7.36;58.41;100509.89;1634352;87;21253;-59
2021/12/21 15:10:02;;;;;;;8.15;4.40;;;;;;;-7.50;58.49;100513.56;1650228;86;21256;-59
2021/12/21 15:13:12;;;;;;;8.93;4.62;;;;;;;-7.60;58.55;100519.70;1649966;86;21409;-60
2021/12/21 15:16:19;;;;;;;8.03;4.10;;;;;;;-7.65;58.42;100529.64;1650066;87;21261;-60
2021/12/21 15:19:27;;;;;;;10.68;4.70;;;;;;;-7.67;58.35;100524.00;1650009;86;21856;-59
2021/12/21 15:22:32;;;;;;;8.85;4.67;;;;;;;-7.70;58.13;100538.73;1649556;87;21289;-60
2021/12/21 15:25:40;;;;;;;13.58;4.97;;;;;;;-7.79;57.68;100530.19;1649948;85;21790;-61